sensor_id;sensor_type;location;lat;lon;timestamp;P1;durP1;ratioP1;P2;durP2;ratioP2
71965;SDS011;59836;52.132;5.442;2022-08-05T00:00:52;4.38;;;2.05;;
71965;SDS011;59836;52.132;5.442;2022-08-05T00:03:18;4.95;;;2.45;;
71965;SDS011;59836;52.132;5.442;2022-08-05T00:05:59;4.53;;;2.10;;
71965;SDS011;59836;52.132;5.442;2022-08-05T00:08:50;4.13;;;2.28;;
71965;SDS011;59836;52.132;5.442;2022-08-05T00:14:20;3.42;;;1.38;;
71965;SDS011;59836;52.132;5.442;2022-08-05T00:16:54;5.00;;;2.10;;
71965;SDS011;59836;52.132;5.442;2022-08-05T00:19:25;6.55;;;2.05;;
71965;SDS011;59836;52.132;5.442;2022-08-05T00:25:31;5.77;;;1.67;;
71965;SDS011;59836;52.132;5.442;2022-08-05T00:28:14;4.60;;;1.83;;
71965;SDS011;59836;52.132;5.442;2022-08-05T00:34:20;4.38;;;2.13;;
71965;SDS011;59836;52.132;5.442;2022-08-05T00:37:12;4.70;;;2.40;;
71965;SDS011;59836;52.132;5.442;2022-08-05T00:39:56;4.93;;;1.83;;
71965;SDS011;59836;52.132;5.442;2022-08-05T00:42:35;5.50;;;1.80;;
71965;SDS011;59836;52.132;5.442;2022-08-05T00:45:05;5.10;;;2.05;;
71965;SDS011;59836;52.132;5.442;2022-08-05T00:47:48;4.35;;;1.73;;
71965;SDS011;59836;52.132;5.442;2022-08-05T00:53:22;8.20;;;2.40;;
71965;SDS011;59836;52.132;5.442;2022-08-05T01:01:51;6.07;;;1.90;;
71965;SDS011;59836;52.132;5.442;2022-08-05T01:04:17;5.60;;;2.00;;
71965;SDS011;59836;52.132;5.442;2022-08-05T01:07:06;4.63;;;2.10;;
71965;SDS011;59836;52.132;5.442;2022-08-05T01:09:45;5.18;;;1.67;;
71965;SDS011;59836;52.132;5.442;2022-08-05T01:12:33;7.03;;;2.20;;
71965;SDS011;59836;52.132;5.442;2022-08-05T01:15:02;7.80;;;1.25;;
71965;SDS011;59836;52.132;5.442;2022-08-05T01:17:52;5.25;;;1.90;;
71965;SDS011;59836;52.132;5.442;2022-08-05T01:20:42;3.50;;;1.70;;
71965;SDS011;59836;52.132;5.442;2022-08-05T01:29:33;6.00;;;1.67;;
71965;SDS011;59836;52.132;5.442;2022-08-05T01:32:08;3.88;;;2.03;;
71965;SDS011;59836;52.132;5.442;2022-08-05T01:34:47;2.50;;;1.40;;
71965;SDS011;59836;52.132;5.442;2022-08-05T01:40:57;5.43;;;1.83;;
71965;SDS011;59836;52.132;5.442;2022-08-05T01:43:33;3.88;;;1.48;;
71965;SDS011;59836;52.132;5.442;2022-08-05T01:46:06;4.45;;;1.65;;
71965;SDS011;59836;52.132;5.442;2022-08-05T01:48:42;4.03;;;1.27;;
71965;SDS011;59836;52.132;5.442;2022-08-05T01:51:15;3.97;;;1.33;;
71965;SDS011;59836;52.132;5.442;2022-08-05T01:53:48;3.17;;;1.60;;
71965;SDS011;59836;52.132;5.442;2022-08-05T01:56:28;4.97;;;1.63;;
71965;SDS011;59836;52.132;5.442;2022-08-05T02:02:12;4.50;;;1.40;;
71965;SDS011;59836;52.132;5.442;2022-08-05T02:04:51;7.68;;;1.63;;
71965;SDS011;59836;52.132;5.442;2022-08-05T02:10:35;3.97;;;1.27;;
71965;SDS011;59836;52.132;5.442;2022-08-05T02:13:14;3.60;;;1.55;;
71965;SDS011;59836;52.132;5.442;2022-08-05T02:15:49;6.67;;;2.03;;
71965;SDS011;59836;52.132;5.442;2022-08-05T02:21:38;3.78;;;1.45;;
71965;SDS011;59836;52.132;5.442;2022-08-05T02:24:20;4.68;;;1.40;;
71965;SDS011;59836;52.132;5.442;2022-08-05T02:26:55;3.90;;;1.67;;
71965;SDS011;59836;52.132;5.442;2022-08-05T02:29:41;3.00;;;1.23;;
71965;SDS011;59836;52.132;5.442;2022-08-05T02:32:36;4.38;;;1.27;;
71965;SDS011;59836;52.132;5.442;2022-08-05T02:35:14;4.20;;;1.60;;
71965;SDS011;59836;52.132;5.442;2022-08-05T02:38:13;3.97;;;1.63;;
71965;SDS011;59836;52.132;5.442;2022-08-05T02:40:49;5.70;;;1.80;;
71965;SDS011;59836;52.132;5.442;2022-08-05T02:45:49;4.03;;;1.75;;
71965;SDS011;59836;52.132;5.442;2022-08-05T02:48:20;4.65;;;1.83;;
71965;SDS011;59836;52.132;5.442;2022-08-05T02:54:20;3.45;;;1.60;;
71965;SDS011;59836;52.132;5.442;2022-08-05T02:57:06;4.83;;;1.67;;
71965;SDS011;59836;52.132;5.442;2022-08-05T02:59:56;7.28;;;1.85;;
71965;SDS011;59836;52.132;5.442;2022-08-05T03:02:28;2.85;;;1.70;;
71965;SDS011;59836;52.132;5.442;2022-08-05T03:04:59;6.28;;;1.88;;
71965;SDS011;59836;52.132;5.442;2022-08-05T03:07:28;3.55;;;1.77;;
71965;SDS011;59836;52.132;5.442;2022-08-05T03:10:15;3.07;;;1.33;;
71965;SDS011;59836;52.132;5.442;2022-08-05T03:12:53;4.30;;;1.73;;
71965;SDS011;59836;52.132;5.442;2022-08-05T03:15:23;5.85;;;2.10;;
71965;SDS011;59836;52.132;5.442;2022-08-05T03:17:53;4.70;;;1.27;;
71965;SDS011;59836;52.132;5.442;2022-08-05T03:20:21;2.67;;;1.88;;
71965;SDS011;59836;52.132;5.442;2022-08-05T03:26:13;3.85;;;1.70;;
71965;SDS011;59836;52.132;5.442;2022-08-05T03:28:57;4.88;;;2.00;;
71965;SDS011;59836;52.132;5.442;2022-08-05T03:31:24;4.65;;;1.48;;
71965;SDS011;59836;52.132;5.442;2022-08-05T03:37:59;4.20;;;2.03;;
71965;SDS011;59836;52.132;5.442;2022-08-05T03:40:27;6.10;;;2.90;;
71965;SDS011;59836;52.132;5.442;2022-08-05T03:43:02;4.82;;;2.20;;
71965;SDS011;59836;52.132;5.442;2022-08-05T03:48:43;6.38;;;1.90;;
71965;SDS011;59836;52.132;5.442;2022-08-05T03:51:16;4.60;;;1.83;;
71965;SDS011;59836;52.132;5.442;2022-08-05T03:57:27;4.07;;;1.73;;
71965;SDS011;59836;52.132;5.442;2022-08-05T04:03:39;4.65;;;2.08;;
71965;SDS011;59836;52.132;5.442;2022-08-05T04:06:37;8.23;;;2.03;;
71965;SDS011;59836;52.132;5.442;2022-08-05T04:09:13;8.07;;;1.77;;
71965;SDS011;59836;52.132;5.442;2022-08-05T04:12:01;4.45;;;2.28;;
71965;SDS011;59836;52.132;5.442;2022-08-05T04:14:29;5.55;;;1.75;;
71965;SDS011;59836;52.132;5.442;2022-08-05T04:19:29;7.10;;;2.00;;
71965;SDS011;59836;52.132;5.442;2022-08-05T04:27:47;6.68;;;2.55;;
71965;SDS011;59836;52.132;5.442;2022-08-05T04:30:29;4.47;;;2.47;;
71965;SDS011;59836;52.132;5.442;2022-08-05T04:32:56;3.63;;;2.13;;
71965;SDS011;59836;52.132;5.442;2022-08-05T04:35:40;6.38;;;1.83;;
71965;SDS011;59836;52.132;5.442;2022-08-05T04:38:30;7.65;;;1.83;;
71965;SDS011;59836;52.132;5.442;2022-08-05T04:43:59;4.13;;;1.88;;
71965;SDS011;59836;52.132;5.442;2022-08-05T04:46:34;7.30;;;2.20;;
71965;SDS011;59836;52.132;5.442;2022-08-05T04:52:10;5.40;;;2.10;;
71965;SDS011;59836;52.132;5.442;2022-08-05T04:54:37;6.38;;;2.00;;
71965;SDS011;59836;52.132;5.442;2022-08-05T04:57:03;2.97;;;2.00;;
71965;SDS011;59836;52.132;5.442;2022-08-05T04:59:34;5.47;;;2.07;;
71965;SDS011;59836;52.132;5.442;2022-08-05T05:02:07;4.10;;;1.90;;
71965;SDS011;59836;52.132;5.442;2022-08-05T05:04:53;5.05;;;2.08;;
71965;SDS011;59836;52.132;5.442;2022-08-05T05:07:32;5.95;;;2.08;;
71965;SDS011;59836;52.132;5.442;2022-08-05T05:10:00;7.55;;;2.40;;
71965;SDS011;59836;52.132;5.442;2022-08-05T05:12:31;3.93;;;1.87;;
71965;SDS011;59836;52.132;5.442;2022-08-05T05:17:39;3.80;;;2.53;;
71965;SDS011;59836;52.132;5.442;2022-08-05T05:20:31;3.80;;;1.73;;
71965;SDS011;59836;52.132;5.442;2022-08-05T05:22:58;7.13;;;2.47;;
71965;SDS011;59836;52.132;5.442;2022-08-05T05:25:56;4.87;;;1.97;;
71965;SDS011;59836;52.132;5.442;2022-08-05T05:28:36;5.72;;;2.03;;
71965;SDS011;59836;52.132;5.442;2022-08-05T05:31:14;6.38;;;2.00;;
71965;SDS011;59836;52.132;5.442;2022-08-05T05:33:43;4.63;;;1.90;;
71965;SDS011;59836;52.132;5.442;2022-08-05T05:36:26;4.22;;;2.05;;
71965;SDS011;59836;52.132;5.442;2022-08-05T05:38:56;5.53;;;1.47;;
71965;SDS011;59836;52.132;5.442;2022-08-05T05:41:30;3.42;;;1.85;;
71965;SDS011;59836;52.132;5.442;2022-08-05T05:47:08;3.42;;;1.60;;
71965;SDS011;59836;52.132;5.442;2022-08-05T05:49:54;5.13;;;2.10;;
71965;SDS011;59836;52.132;5.442;2022-08-05T05:52:27;3.50;;;1.53;;
71965;SDS011;59836;52.132;5.442;2022-08-05T05:58:28;5.25;;;1.80;;
71965;SDS011;59836;52.132;5.442;2022-08-05T06:00:57;3.78;;;1.70;;
71965;SDS011;59836;52.132;5.442;2022-08-05T06:03:37;3.80;;;1.85;;
71965;SDS011;59836;52.132;5.442;2022-08-05T06:06:36;6.17;;;1.87;;
71965;SDS011;59836;52.132;5.442;2022-08-05T06:09:06;4.22;;;1.90;;
71965;SDS011;59836;52.132;5.442;2022-08-05T06:11:34;3.92;;;1.40;;
71965;SDS011;59836;52.132;5.442;2022-08-05T06:17:00;2.88;;;1.58;;
71965;SDS011;59836;52.132;5.442;2022-08-05T06:19:47;1.93;;;1.07;;
71965;SDS011;59836;52.132;5.442;2022-08-05T06:22:31;4.32;;;1.27;;
71965;SDS011;59836;52.132;5.442;2022-08-05T06:25:00;4.75;;;1.50;;
71965;SDS011;59836;52.132;5.442;2022-08-05T06:27:47;4.53;;;1.25;;
71965;SDS011;59836;52.132;5.442;2022-08-05T06:30:33;3.30;;;1.58;;
71965;SDS011;59836;52.132;5.442;2022-08-05T06:33:00;3.63;;;1.40;;
71965;SDS011;59836;52.132;5.442;2022-08-05T06:41:25;2.53;;;1.77;;
71965;SDS011;59836;52.132;5.442;2022-08-05T06:43:51;3.13;;;1.17;;
71965;SDS011;59836;52.132;5.442;2022-08-05T06:46:27;2.63;;;1.20;;
71965;SDS011;59836;52.132;5.442;2022-08-05T06:48:55;1.88;;;1.17;;
71965;SDS011;59836;52.132;5.442;2022-08-05T06:51:26;2.20;;;1.48;;
71965;SDS011;59836;52.132;5.442;2022-08-05T06:53:58;2.95;;;1.10;;
71965;SDS011;59836;52.132;5.442;2022-08-05T06:56:27;2.13;;;1.30;;
71965;SDS011;59836;52.132;5.442;2022-08-05T06:58:59;3.10;;;1.27;;
71965;SDS011;59836;52.132;5.442;2022-08-05T07:01:25;5.32;;;1.20;;
71965;SDS011;59836;52.132;5.442;2022-08-05T07:04:00;2.13;;;1.17;;
71965;SDS011;59836;52.132;5.442;2022-08-05T07:06:29;3.25;;;0.95;;
71965;SDS011;59836;52.132;5.442;2022-08-05T07:09:03;2.15;;;1.10;;
71965;SDS011;59836;52.132;5.442;2022-08-05T07:11:31;3.27;;;1.27;;
71965;SDS011;59836;52.132;5.442;2022-08-05T07:14:02;2.60;;;1.02;;
71965;SDS011;59836;52.132;5.442;2022-08-05T07:16:55;4.53;;;1.70;;
71965;SDS011;59836;52.132;5.442;2022-08-05T07:19:47;2.75;;;1.10;;
71965;SDS011;59836;52.132;5.442;2022-08-05T07:22:41;2.50;;;1.00;;
71965;SDS011;59836;52.132;5.442;2022-08-05T07:25:10;3.10;;;1.10;;
71965;SDS011;59836;52.132;5.442;2022-08-05T07:27:57;2.63;;;0.95;;
71965;SDS011;59836;52.132;5.442;2022-08-05T07:30:36;4.10;;;0.85;;
71965;SDS011;59836;52.132;5.442;2022-08-05T07:33:08;1.63;;;1.02;;
71965;SDS011;59836;52.132;5.442;2022-08-05T07:38:47;2.33;;;1.23;;
71965;SDS011;59836;52.132;5.442;2022-08-05T07:41:21;2.60;;;0.77;;
71965;SDS011;59836;52.132;5.442;2022-08-05T07:44:09;1.48;;;1.05;;
71965;SDS011;59836;52.132;5.442;2022-08-05T07:46:46;1.65;;;0.70;;
71965;SDS011;59836;52.132;5.442;2022-08-05T07:49:32;2.00;;;0.70;;
71965;SDS011;59836;52.132;5.442;2022-08-05T07:52:08;2.63;;;1.03;;
71965;SDS011;59836;52.132;5.442;2022-08-05T07:54:38;1.40;;;0.60;;
71965;SDS011;59836;52.132;5.442;2022-08-05T07:57:17;3.35;;;0.75;;
71965;SDS011;59836;52.132;5.442;2022-08-05T08:00:12;1.83;;;0.80;;
71965;SDS011;59836;52.132;5.442;2022-08-05T08:02:46;1.80;;;0.90;;
71965;SDS011;59836;52.132;5.442;2022-08-05T08:05:34;1.87;;;0.87;;
71965;SDS011;59836;52.132;5.442;2022-08-05T08:08:19;1.40;;;0.77;;
71965;SDS011;59836;52.132;5.442;2022-08-05T08:10:47;1.50;;;0.80;;
71965;SDS011;59836;52.132;5.442;2022-08-05T08:13:16;1.80;;;0.70;;
71965;SDS011;59836;52.132;5.442;2022-08-05T08:15:54;1.58;;;0.90;;
71965;SDS011;59836;52.132;5.442;2022-08-05T08:18:40;1.53;;;0.53;;
71965;SDS011;59836;52.132;5.442;2022-08-05T08:23:46;1.20;;;0.70;;
71965;SDS011;59836;52.132;5.442;2022-08-05T08:26:29;2.58;;;0.65;;
71965;SDS011;59836;52.132;5.442;2022-08-05T08:29:02;1.08;;;0.85;;
71965;SDS011;59836;52.132;5.442;2022-08-05T08:31:51;1.07;;;0.47;;
71965;SDS011;59836;52.132;5.442;2022-08-05T08:34:19;0.93;;;0.70;;
71965;SDS011;59836;52.132;5.442;2022-08-05T08:36:56;1.25;;;0.88;;
71965;SDS011;59836;52.132;5.442;2022-08-05T08:39:37;1.92;;;0.68;;
71965;SDS011;59836;52.132;5.442;2022-08-05T08:48:05;2.60;;;0.63;;
71965;SDS011;59836;52.132;5.442;2022-08-05T08:57:26;2.90;;;0.80;;
71965;SDS011;59836;52.132;5.442;2022-08-05T09:00:13;0.60;;;0.50;;
71965;SDS011;59836;52.132;5.442;2022-08-05T09:02:44;1.10;;;0.40;;
71965;SDS011;59836;52.132;5.442;2022-08-05T09:10:53;1.42;;;0.70;;
71965;SDS011;59836;52.132;5.442;2022-08-05T09:13:35;1.63;;;0.60;;
71965;SDS011;59836;52.132;5.442;2022-08-05T09:16:27;2.38;;;0.50;;
71965;SDS011;59836;52.132;5.442;2022-08-05T09:18:54;1.20;;;0.82;;
71965;SDS011;59836;52.132;5.442;2022-08-05T09:21:24;1.80;;;0.60;;
71965;SDS011;59836;52.132;5.442;2022-08-05T09:24:17;3.05;;;0.70;;
71965;SDS011;59836;52.132;5.442;2022-08-05T09:26:52;11.57;;;0.87;;
71965;SDS011;59836;52.132;5.442;2022-08-05T09:29:40;1.52;;;0.65;;
71965;SDS011;59836;52.132;5.442;2022-08-05T09:32:13;1.70;;;0.60;;
71965;SDS011;59836;52.132;5.442;2022-08-05T09:37:55;1.50;;;0.52;;
71965;SDS011;59836;52.132;5.442;2022-08-05T09:40:42;1.23;;;0.50;;
71965;SDS011;59836;52.132;5.442;2022-08-05T09:43:35;1.33;;;0.70;;
71965;SDS011;59836;52.132;5.442;2022-08-05T09:49:23;2.83;;;0.40;;
71965;SDS011;59836;52.132;5.442;2022-08-05T09:52:26;1.20;;;0.60;;
71965;SDS011;59836;52.132;5.442;2022-08-05T10:00:20;2.45;;;0.50;;
71965;SDS011;59836;52.132;5.442;2022-08-05T10:03:09;2.60;;;0.70;;
71965;SDS011;59836;52.132;5.442;2022-08-05T10:05:44;1.17;;;0.50;;
71965;SDS011;59836;52.132;5.442;2022-08-05T10:08:13;1.57;;;1.00;;
71965;SDS011;59836;52.132;5.442;2022-08-05T10:17:10;2.55;;;1.05;;
71965;SDS011;59836;52.132;5.442;2022-08-05T10:20:04;2.20;;;0.82;;
71965;SDS011;59836;52.132;5.442;2022-08-05T10:22:46;1.60;;;0.40;;
71965;SDS011;59836;52.132;5.442;2022-08-05T10:25:16;1.00;;;0.50;;
71965;SDS011;59836;52.132;5.442;2022-08-05T10:27:44;2.35;;;0.73;;
71965;SDS011;59836;52.132;5.442;2022-08-05T10:30:33;0.93;;;0.47;;
71965;SDS011;59836;52.132;5.442;2022-08-05T10:33:21;2.35;;;0.57;;
71965;SDS011;59836;52.132;5.442;2022-08-05T10:35:54;2.27;;;0.73;;
71965;SDS011;59836;52.132;5.442;2022-08-05T10:38:26;2.55;;;0.90;;
71965;SDS011;59836;52.132;5.442;2022-08-05T10:44:26;1.30;;;0.50;;
71965;SDS011;59836;52.132;5.442;2022-08-05T10:50:06;2.90;;;0.67;;
71965;SDS011;59836;52.132;5.442;2022-08-05T10:52:58;2.85;;;0.60;;
71965;SDS011;59836;52.132;5.442;2022-08-05T10:55:26;1.52;;;0.63;;
71965;SDS011;59836;52.132;5.442;2022-08-05T10:58:06;1.13;;;0.60;;
71965;SDS011;59836;52.132;5.442;2022-08-05T11:00:44;2.10;;;0.57;;
71965;SDS011;59836;52.132;5.442;2022-08-05T11:03:12;0.73;;;0.50;;
71965;SDS011;59836;52.132;5.442;2022-08-05T11:06:01;0.90;;;0.50;;
71965;SDS011;59836;52.132;5.442;2022-08-05T11:08:30;1.08;;;0.60;;
71965;SDS011;59836;52.132;5.442;2022-08-05T11:14:35;0.60;;;0.40;;
71965;SDS011;59836;52.132;5.442;2022-08-05T11:17:34;1.70;;;0.43;;
71965;SDS011;59836;52.132;5.442;2022-08-05T11:26:22;1.75;;;0.55;;
71965;SDS011;59836;52.132;5.442;2022-08-05T11:29:06;0.75;;;0.57;;
71965;SDS011;59836;52.132;5.442;2022-08-05T11:32:17;0.90;;;0.37;;
71965;SDS011;59836;52.132;5.442;2022-08-05T11:34:51;2.25;;;0.52;;
71965;SDS011;59836;52.132;5.442;2022-08-05T11:44:08;1.80;;;0.50;;
71965;SDS011;59836;52.132;5.442;2022-08-05T11:47:08;1.30;;;0.50;;
71965;SDS011;59836;52.132;5.442;2022-08-05T11:49:43;0.75;;;0.40;;
71965;SDS011;59836;52.132;5.442;2022-08-05T11:52:23;1.35;;;1.02;;
71965;SDS011;59836;52.132;5.442;2022-08-05T11:54:55;1.45;;;0.57;;
71965;SDS011;59836;52.132;5.442;2022-08-05T11:57:43;1.85;;;0.50;;
71965;SDS011;59836;52.132;5.442;2022-08-05T12:00:31;1.20;;;0.40;;
71965;SDS011;59836;52.132;5.442;2022-08-05T12:03:19;0.90;;;0.45;;
71965;SDS011;59836;52.132;5.442;2022-08-05T12:11:24;1.90;;;0.57;;
71965;SDS011;59836;52.132;5.442;2022-08-05T12:14:15;2.37;;;0.53;;
71965;SDS011;59836;52.132;5.442;2022-08-05T12:16:43;1.25;;;0.45;;
71965;SDS011;59836;52.132;5.442;2022-08-05T12:19:17;2.40;;;0.60;;
71965;SDS011;59836;52.132;5.442;2022-08-05T12:24:57;1.90;;;0.70;;
71965;SDS011;59836;52.132;5.442;2022-08-05T12:27:28;2.53;;;0.70;;
71965;SDS011;59836;52.132;5.442;2022-08-05T12:30:03;1.02;;;0.50;;
71965;SDS011;59836;52.132;5.442;2022-08-05T12:32:47;0.88;;;0.45;;
71965;SDS011;59836;52.132;5.442;2022-08-05T12:35:17;1.00;;;0.60;;
71965;SDS011;59836;52.132;5.442;2022-08-05T12:40:47;4.50;;;0.60;;
71965;SDS011;59836;52.132;5.442;2022-08-05T12:43:15;1.65;;;0.50;;
71965;SDS011;59836;52.132;5.442;2022-08-05T12:45:52;2.88;;;0.70;;
71965;SDS011;59836;52.132;5.442;2022-08-05T12:48:21;1.80;;;0.50;;
71965;SDS011;59836;52.132;5.442;2022-08-05T12:51:13;13.55;;;2.10;;
71965;SDS011;59836;52.132;5.442;2022-08-05T12:54:03;1.53;;;0.40;;
71965;SDS011;59836;52.132;5.442;2022-08-05T12:59:17;1.33;;;0.70;;
71965;SDS011;59836;52.132;5.442;2022-08-05T13:10:33;3.35;;;0.73;;
71965;SDS011;59836;52.132;5.442;2022-08-05T13:13:18;0.85;;;0.60;;
71965;SDS011;59836;52.132;5.442;2022-08-05T13:16:12;2.88;;;0.65;;
71965;SDS011;59836;52.132;5.442;2022-08-05T13:18:49;3.20;;;0.68;;
71965;SDS011;59836;52.132;5.442;2022-08-05T13:21:26;1.07;;;0.57;;
71965;SDS011;59836;52.132;5.442;2022-08-05T13:24:12;1.35;;;0.60;;
71965;SDS011;59836;52.132;5.442;2022-08-05T13:26:52;1.35;;;0.60;;
71965;SDS011;59836;52.132;5.442;2022-08-05T13:29:19;2.08;;;0.70;;
71965;SDS011;59836;52.132;5.442;2022-08-05T13:32:03;2.17;;;0.70;;
71965;SDS011;59836;52.132;5.442;2022-08-05T13:34:31;1.73;;;0.73;;
71965;SDS011;59836;52.132;5.442;2022-08-05T13:36:57;1.73;;;0.88;;
71965;SDS011;59836;52.132;5.442;2022-08-05T13:39:26;0.80;;;0.70;;
71965;SDS011;59836;52.132;5.442;2022-08-05T13:42:14;1.30;;;0.65;;
71965;SDS011;59836;52.132;5.442;2022-08-05T13:44:41;2.80;;;0.82;;
71965;SDS011;59836;52.132;5.442;2022-08-05T13:47:12;1.17;;;0.60;;
71965;SDS011;59836;52.132;5.442;2022-08-05T13:50:00;2.40;;;0.68;;
71965;SDS011;59836;52.132;5.442;2022-08-05T13:52:30;3.00;;;0.90;;
71965;SDS011;59836;52.132;5.442;2022-08-05T13:55:00;2.38;;;0.80;;
71965;SDS011;59836;52.132;5.442;2022-08-05T13:57:33;2.20;;;0.93;;
71965;SDS011;59836;52.132;5.442;2022-08-05T14:00:17;1.70;;;0.80;;
71965;SDS011;59836;52.132;5.442;2022-08-05T14:02:55;3.00;;;0.98;;
71965;SDS011;59836;52.132;5.442;2022-08-05T14:05:39;1.70;;;0.90;;
71965;SDS011;59836;52.132;5.442;2022-08-05T14:08:26;3.03;;;0.70;;
71965;SDS011;59836;52.132;5.442;2022-08-05T14:13:47;2.57;;;0.90;;
71965;SDS011;59836;52.132;5.442;2022-08-05T14:16:20;1.85;;;0.90;;
71965;SDS011;59836;52.132;5.442;2022-08-05T14:18:46;1.77;;;0.93;;
71965;SDS011;59836;52.132;5.442;2022-08-05T14:21:14;0.90;;;0.60;;
71965;SDS011;59836;52.132;5.442;2022-08-05T14:24:01;2.35;;;0.60;;
71965;SDS011;59836;52.132;5.442;2022-08-05T14:26:30;1.87;;;0.60;;
71965;SDS011;59836;52.132;5.442;2022-08-05T14:29:06;1.55;;;0.77;;
71965;SDS011;59836;52.132;5.442;2022-08-05T14:31:52;3.40;;;0.70;;
71965;SDS011;59836;52.132;5.442;2022-08-05T14:34:30;3.03;;;0.80;;
71965;SDS011;59836;52.132;5.442;2022-08-05T14:37:09;3.05;;;0.80;;
71965;SDS011;59836;52.132;5.442;2022-08-05T14:39:40;2.23;;;0.70;;
71965;SDS011;59836;52.132;5.442;2022-08-05T14:42:25;2.15;;;0.80;;
71965;SDS011;59836;52.132;5.442;2022-08-05T14:44:52;1.63;;;1.02;;
71965;SDS011;59836;52.132;5.442;2022-08-05T14:47:22;1.52;;;0.65;;
71965;SDS011;59836;52.132;5.442;2022-08-05T14:50:17;3.58;;;1.30;;
71965;SDS011;59836;52.132;5.442;2022-08-05T14:52:45;3.30;;;1.10;;
71965;SDS011;59836;52.132;5.442;2022-08-05T14:55:24;1.88;;;1.00;;
71965;SDS011;59836;52.132;5.442;2022-08-05T14:58:19;2.90;;;1.00;;
71965;SDS011;59836;52.132;5.442;2022-08-05T15:00:47;3.13;;;0.80;;
71965;SDS011;59836;52.132;5.442;2022-08-05T15:03:29;3.75;;;1.20;;
71965;SDS011;59836;52.132;5.442;2022-08-05T15:06:04;3.03;;;1.17;;
71965;SDS011;59836;52.132;5.442;2022-08-05T15:08:43;3.13;;;1.17;;
71965;SDS011;59836;52.132;5.442;2022-08-05T15:14:18;4.35;;;0.93;;
71965;SDS011;59836;52.132;5.442;2022-08-05T15:17:02;3.05;;;1.02;;
71965;SDS011;59836;52.132;5.442;2022-08-05T15:19:37;6.00;;;1.23;;
71965;SDS011;59836;52.132;5.442;2022-08-05T15:22:04;2.67;;;0.90;;
71965;SDS011;59836;52.132;5.442;2022-08-05T15:24:32;2.90;;;0.90;;
71965;SDS011;59836;52.132;5.442;2022-08-05T15:30:01;2.90;;;1.35;;
71965;SDS011;59836;52.132;5.442;2022-08-05T15:32:28;3.60;;;1.57;;
71965;SDS011;59836;52.132;5.442;2022-08-05T15:34:56;3.78;;;1.10;;
71965;SDS011;59836;52.132;5.442;2022-08-05T15:37:24;2.08;;;0.73;;
71965;SDS011;59836;52.132;5.442;2022-08-05T15:40:11;1.95;;;0.98;;
71965;SDS011;59836;52.132;5.442;2022-08-05T15:42:57;1.88;;;1.20;;
71965;SDS011;59836;52.132;5.442;2022-08-05T15:45:44;2.03;;;0.70;;
71965;SDS011;59836;52.132;5.442;2022-08-05T15:48:25;7.70;;;1.85;;
71965;SDS011;59836;52.132;5.442;2022-08-05T15:50:52;4.28;;;1.90;;
71965;SDS011;59836;52.132;5.442;2022-08-05T15:53:21;2.00;;;1.10;;
71965;SDS011;59836;52.132;5.442;2022-08-05T15:55:51;4.18;;;1.10;;
71965;SDS011;59836;52.132;5.442;2022-08-05T15:58:29;2.03;;;1.10;;
71965;SDS011;59836;52.132;5.442;2022-08-05T16:01:02;4.30;;;0.98;;
71965;SDS011;59836;52.132;5.442;2022-08-05T16:03:43;1.70;;;0.90;;
71965;SDS011;59836;52.132;5.442;2022-08-05T16:06:16;4.18;;;1.20;;
71965;SDS011;59836;52.132;5.442;2022-08-05T16:11:35;3.97;;;1.90;;
71965;SDS011;59836;52.132;5.442;2022-08-05T16:14:08;3.60;;;1.42;;
71965;SDS011;59836;52.132;5.442;2022-08-05T16:16:42;3.33;;;1.40;;
71965;SDS011;59836;52.132;5.442;2022-08-05T16:19:11;1.40;;;1.02;;
71965;SDS011;59836;52.132;5.442;2022-08-05T16:21:58;3.70;;;1.08;;
71965;SDS011;59836;52.132;5.442;2022-08-05T16:24:30;2.13;;;1.00;;
71965;SDS011;59836;52.132;5.442;2022-08-05T16:27:25;3.33;;;1.13;;
71965;SDS011;59836;52.132;5.442;2022-08-05T16:30:13;4.97;;;1.70;;
71965;SDS011;59836;52.132;5.442;2022-08-05T16:32:51;3.08;;;1.20;;
71965;SDS011;59836;52.132;5.442;2022-08-05T16:35:18;1.00;;;0.68;;
71965;SDS011;59836;52.132;5.442;2022-08-05T16:38:02;4.37;;;1.27;;
71965;SDS011;59836;52.132;5.442;2022-08-05T16:40:49;2.58;;;1.38;;
71965;SDS011;59836;52.132;5.442;2022-08-05T16:43:21;3.08;;;1.20;;
71965;SDS011;59836;52.132;5.442;2022-08-05T16:45:50;4.47;;;1.60;;
71965;SDS011;59836;52.132;5.442;2022-08-05T16:48:37;3.45;;;1.30;;
71965;SDS011;59836;52.132;5.442;2022-08-05T16:51:04;3.57;;;1.00;;
71965;SDS011;59836;52.132;5.442;2022-08-05T16:53:36;3.72;;;0.70;;
71965;SDS011;59836;52.132;5.442;2022-08-05T16:56:26;6.60;;;2.17;;
71965;SDS011;59836;52.132;5.442;2022-08-05T16:59:04;3.60;;;1.00;;
71965;SDS011;59836;52.132;5.442;2022-08-05T17:01:33;2.38;;;1.02;;
71965;SDS011;59836;52.132;5.442;2022-08-05T17:04:20;2.07;;;1.23;;
71965;SDS011;59836;52.132;5.442;2022-08-05T17:06:49;4.15;;;1.40;;
71965;SDS011;59836;52.132;5.442;2022-08-05T17:09:18;5.05;;;2.13;;
71965;SDS011;59836;52.132;5.442;2022-08-05T17:11:46;4.13;;;1.75;;
71965;SDS011;59836;52.132;5.442;2022-08-05T17:14:14;1.75;;;0.80;;
71965;SDS011;59836;52.132;5.442;2022-08-05T17:17:02;2.67;;;0.90;;
71965;SDS011;59836;52.132;5.442;2022-08-05T17:19:29;2.10;;;1.02;;
71965;SDS011;59836;52.132;5.442;2022-08-05T17:21:56;3.92;;;1.20;;
71965;SDS011;59836;52.132;5.442;2022-08-05T17:24:23;3.45;;;1.30;;
71965;SDS011;59836;52.132;5.442;2022-08-05T17:27:08;2.70;;;0.95;;
71965;SDS011;59836;52.132;5.442;2022-08-05T17:29:35;1.20;;;0.90;;
71965;SDS011;59836;52.132;5.442;2022-08-05T17:32:10;4.40;;;1.70;;
71965;SDS011;59836;52.132;5.442;2022-08-05T17:34:43;4.78;;;1.25;;
71965;SDS011;59836;52.132;5.442;2022-08-05T17:37:18;6.38;;;1.95;;
71965;SDS011;59836;52.132;5.442;2022-08-05T17:40:05;5.47;;;1.48;;
71965;SDS011;59836;52.132;5.442;2022-08-05T17:42:36;1.87;;;1.00;;
71965;SDS011;59836;52.132;5.442;2022-08-05T17:45:17;2.67;;;1.23;;
71965;SDS011;59836;52.132;5.442;2022-08-05T17:47:51;2.78;;;1.10;;
71965;SDS011;59836;52.132;5.442;2022-08-05T17:50:26;4.43;;;1.50;;
71965;SDS011;59836;52.132;5.442;2022-08-05T17:52:59;7.35;;;1.73;;
71965;SDS011;59836;52.132;5.442;2022-08-05T17:55:34;3.57;;;1.33;;
71965;SDS011;59836;52.132;5.442;2022-08-05T17:58:05;4.60;;;1.17;;
71965;SDS011;59836;52.132;5.442;2022-08-05T18:00:36;5.60;;;1.45;;
71965;SDS011;59836;52.132;5.442;2022-08-05T18:03:09;4.78;;;1.17;;
71965;SDS011;59836;52.132;5.442;2022-08-05T18:05:36;5.72;;;1.27;;
71965;SDS011;59836;52.132;5.442;2022-08-05T18:08:12;2.57;;;0.87;;
71965;SDS011;59836;52.132;5.442;2022-08-05T18:10:39;3.25;;;0.80;;
71965;SDS011;59836;52.132;5.442;2022-08-05T18:13:06;3.72;;;1.15;;
71965;SDS011;59836;52.132;5.442;2022-08-05T18:15:38;3.75;;;1.15;;
71965;SDS011;59836;52.132;5.442;2022-08-05T18:18:06;4.40;;;1.20;;
71965;SDS011;59836;52.132;5.442;2022-08-05T18:20:41;3.17;;;1.07;;
71965;SDS011;59836;52.132;5.442;2022-08-05T18:23:12;4.13;;;1.10;;
71965;SDS011;59836;52.132;5.442;2022-08-05T18:25:39;4.40;;;1.23;;
71965;SDS011;59836;52.132;5.442;2022-08-05T18:28:12;5.30;;;0.98;;
71965;SDS011;59836;52.132;5.442;2022-08-05T18:30:44;5.07;;;1.27;;
71965;SDS011;59836;52.132;5.442;2022-08-05T18:33:17;2.37;;;0.90;;
71965;SDS011;59836;52.132;5.442;2022-08-05T18:35:49;4.47;;;0.80;;
71965;SDS011;59836;52.132;5.442;2022-08-05T18:38:33;3.15;;;0.90;;
71965;SDS011;59836;52.132;5.442;2022-08-05T18:41:01;3.65;;;1.20;;
71965;SDS011;59836;52.132;5.442;2022-08-05T18:43:52;3.80;;;1.10;;
71965;SDS011;59836;52.132;5.442;2022-08-05T18:46:20;2.20;;;0.73;;
71965;SDS011;59836;52.132;5.442;2022-08-05T18:48:51;3.67;;;0.95;;
71965;SDS011;59836;52.132;5.442;2022-08-05T18:51:22;3.33;;;0.90;;
71965;SDS011;59836;52.132;5.442;2022-08-05T18:54:28;4.05;;;0.93;;
71965;SDS011;59836;52.132;5.442;2022-08-05T18:56:59;3.50;;;0.98;;
71965;SDS011;59836;52.132;5.442;2022-08-05T18:59:28;3.37;;;0.77;;